Time;durP1;ratioP1;P1;durP2;ratioP2;P2;SDS_P1;SDS_P2;PMS_P1;PMS_P2;Temp;Humidity;BMP_temperature;BMP_pressure;BME280_temperature;BME280_humidity;BME280_pressure;Samples;Min_cycle;Max_cycle;Signal;HPM_P1;HPM_P2
2022/01/04 00:02:19;;;;;;;1.17;1.08;;;9.30;99.90;;;;;;5050391;28;20224;-72
2022/01/04 00:04:46;;;;;;;2.38;1.77;;;9.40;99.90;;;;;;5050730;28;20240;-72
2022/01/04 00:07:12;;;;;;;1.75;1.35;;;9.30;99.90;;;;;;5050591;28;20205;-71
2022/01/04 00:09:42;;;;;;;1.75;1.60;;;9.30;99.90;;;;;;5050635;28;20569;-71
2022/01/04 00:15:05;;;;;;;3.03;1.60;;;9.30;99.90;;;;;;5003364;28;20755;-71
2022/01/04 00:17:31;;;;;;;1.90;1.58;;;9.30;99.90;;;;;;5050120;28;20221;-71
2022/01/04 00:19:58;;;;;;;2.60;1.27;;;9.30;99.90;;;;;;5050813;28;20204;-72
2022/01/04 00:22:25;;;;;;;1.50;1.40;;;9.30;99.90;;;;;;5050327;28;20207;-71
2022/01/04 00:24:52;;;;;;;1.80;1.40;;;9.20;99.90;;;;;;5050769;28;20233;-71
2022/01/04 00:27:18;;;;;;;1.67;1.30;;;9.20;99.90;;;;;;5054459;28;20197;-72
2022/01/04 00:29:45;;;;;;;1.60;1.20;;;9.20;99.90;;;;;;5054188;28;20208;-72
2022/01/04 00:32:13;;;;;;;2.10;1.40;;;9.20;99.90;;;;;;5055620;28;20198;-72
2022/01/04 00:34:41;;;;;;;2.17;1.55;;;9.20;99.90;;;;;;5056750;28;20716;-72
2022/01/04 00:37:08;;;;;;;2.67;1.10;;;9.20;99.90;;;;;;5054245;28;20233;-72
2022/01/04 00:39:34;;;;;;;2.08;1.25;;;9.20;99.90;;;;;;5053813;28;20201;-71
2022/01/04 00:42:02;;;;;;;3.28;1.35;;;9.20;99.90;;;;;;5053579;28;20212;-72
2022/01/04 00:44:29;;;;;;;1.75;1.30;;;9.20;99.90;;;;;;5053848;28;20221;-72
2022/01/04 00:46:56;;;;;;;2.35;1.33;;;9.20;99.90;;;;;;5053987;28;20209;-72
2022/01/04 00:49:23;;;;;;;1.70;1.60;;;9.20;99.90;;;;;;5053976;28;20201;-72
2022/01/04 00:51:52;;;;;;;1.70;1.45;;;9.20;99.90;;;;;;5053129;28;20236;-72
2022/01/04 00:54:19;;;;;;;2.85;1.58;;;9.20;99.90;;;;;;5053749;28;20304;-72
2022/01/04 00:56:49;;;;;;;1.50;1.40;;;9.30;99.90;;;;;;5053666;28;20606;-71
2022/01/04 00:59:17;;;;;;;2.15;1.45;;;9.20;99.90;;;;;;5053871;28;20208;-72
2022/01/04 01:01:44;;;;;;;3.17;1.10;;;9.20;99.90;;;;;;5053180;28;20255;-72
2022/01/04 01:04:11;;;;;;;4.25;1.50;;;9.20;99.90;;;;;;5053601;28;20638;-72
2022/01/04 01:06:39;;;;;;;1.70;1.10;;;9.20;99.90;;;;;;5053766;28;20554;-72
2022/01/04 01:09:06;;;;;;;2.20;1.40;;;9.20;99.90;;;;;;5053650;28;20619;-71
2022/01/04 01:11:33;;;;;;;2.10;1.67;;;9.20;99.90;;;;;;5052961;28;20205;-71
2022/01/04 01:14:00;;;;;;;2.20;1.50;;;9.20;99.90;;;;;;5053391;28;20232;-71
2022/01/04 01:16:27;;;;;;;2.95;1.40;;;9.20;99.90;;;;;;5053399;28;20224;-71
2022/01/04 01:18:53;;;;;;;2.80;1.40;;;9.20;99.90;;;;;;5053322;28;20212;-72
2022/01/04 01:21:20;;;;;;;1.85;1.60;;;9.20;99.90;;;;;;5052783;28;20208;-71
2022/01/04 01:23:49;;;;;;;3.50;1.45;;;9.20;99.90;;;;;;5053187;28;20692;-71
2022/01/04 01:26:16;;;;;;;1.90;1.58;;;9.20;99.90;;;;;;5053365;28;20287;-72
2022/01/04 01:28:43;;;;;;;1.88;1.30;;;9.10;99.90;;;;;;5052984;28;20208;-73
2022/01/04 01:31:10;;;;;;;2.83;1.67;;;9.10;99.90;;;;;;5052602;28;20216;-73
2022/01/04 01:33:36;;;;;;;2.03;1.30;;;9.10;99.90;;;;;;5053158;28;20221;-73
2022/01/04 01:36:04;;;;;;;2.88;1.50;;;9.20;99.90;;;;;;5053299;28;20603;-73
2022/01/04 01:38:31;;;;;;;2.58;1.90;;;9.20;99.90;;;;;;5053635;28;20209;-73
2022/01/04 01:40:59;;;;;;;1.92;1.77;;;9.20;99.90;;;;;;5053008;28;20778;-73
2022/01/04 01:43:29;;;;;;;1.95;1.60;;;9.10;99.90;;;;;;5052965;28;20591;-73
2022/01/04 01:45:56;;;;;;;2.97;1.80;;;9.10;99.90;;;;;;5053023;28;20572;-73
2022/01/04 01:48:23;;;;;;;2.17;1.80;;;9.10;99.90;;;;;;5052753;28;20588;-73
2022/01/04 01:50:50;;;;;;;1.73;1.63;;;9.10;99.90;;;;;;5052600;28;20204;-73
2022/01/04 01:53:16;;;;;;;4.72;1.60;;;9.00;99.90;;;;;;5052416;28;20225;-73
2022/01/04 01:55:43;;;;;;;1.65;1.55;;;9.00;99.90;;;;;;5052527;28;20715;-73
2022/01/04 01:58:12;;;;;;;1.52;1.42;;;9.00;99.90;;;;;;5052814;28;20664;-73
2022/01/04 02:00:39;;;;;;;1.90;1.67;;;9.00;99.90;;;;;;5052312;28;20217;-71
2022/01/04 02:03:06;;;;;;;2.03;1.85;;;9.00;99.90;;;;;;5052057;28;20212;-73
2022/01/04 02:05:33;;;;;;;1.63;1.38;;;9.00;99.90;;;;;;5052179;28;20201;-73
2022/01/04 02:08:01;;;;;;;1.98;1.77;;;9.00;99.90;;;;;;5052357;28;20208;-72
2022/01/04 02:10:29;;;;;;;1.70;1.60;;;9.00;99.90;;;;;;5052128;28;20228;-73
2022/01/04 02:12:55;;;;;;;1.98;1.85;;;9.00;99.90;;;;;;5051859;28;20216;-73
2022/01/04 02:15:25;;;;;;;1.80;1.55;;;9.00;99.90;;;;;;5052313;28;20212;-73
2022/01/04 02:17:52;;;;;;;1.50;1.40;;;9.00;99.90;;;;;;5051830;28;20643;-72
2022/01/04 02:20:21;;;;;;;2.83;2.08;;;9.00;99.90;;;;;;5052261;28;20228;-72
2022/01/04 02:22:49;;;;;;;1.70;1.55;;;9.00;99.90;;;;;;5051227;28;20209;-72
2022/01/04 02:25:17;;;;;;;2.97;2.00;;;9.10;99.90;;;;;;5052021;28;20229;-74
2022/01/04 02:27:44;;;;;;;2.85;1.90;;;9.10;99.90;;;;;;5051670;28;20197;-72
2022/01/04 02:30:14;;;;;;;2.50;2.30;;;9.10;99.90;;;;;;5052053;28;20201;-72
2022/01/04 02:32:41;;;;;;;2.20;1.80;;;9.20;99.90;;;;;;5051443;28;20228;-72
2022/01/04 02:35:09;;;;;;;1.95;1.70;;;9.20;99.90;;;;;;5051591;28;20735;-73
2022/01/04 02:37:37;;;;;;;1.90;1.70;;;9.30;99.90;;;;;;5051793;28;20220;-72
2022/01/04 02:40:05;;;;;;;2.17;1.90;;;9.30;99.90;;;;;;5051782;28;20206;-72
2022/01/04 02:42:31;;;;;;;2.47;1.92;;;9.30;99.90;;;;;;5051039;28;20211;-72
2022/01/04 02:45:00;;;;;;;2.10;1.85;;;9.30;99.90;;;;;;5051893;28;20627;-73
2022/01/04 02:47:28;;;;;;;1.95;1.75;;;9.30;99.90;;;;;;5051483;28;20193;-72
2022/01/04 02:49:54;;;;;;;2.05;1.80;;;9.30;99.90;;;;;;5050836;28;20290;-72
2022/01/04 02:52:21;;;;;;;2.20;2.00;;;9.40;99.90;;;;;;5051313;28;20201;-73
2022/01/04 02:54:49;;;;;;;3.83;1.70;;;9.40;99.90;;;;;;5051852;28;20225;-73
2022/01/04 02:57:16;;;;;;;1.90;1.60;;;9.50;99.90;;;;;;5051244;28;20225;-72
2022/01/04 02:59:43;;;;;;;1.90;1.80;;;9.50;99.90;;;;;;5051330;28;20623;-72
2022/01/04 03:02:09;;;;;;;2.17;1.98;;;9.50;99.90;;;;;;5050713;28;20197;-73
2022/01/04 03:04:36;;;;;;;3.63;1.90;;;9.50;99.90;;;;;;5051068;28;20724;-73
2022/01/04 03:07:03;;;;;;;1.60;1.50;;;9.50;99.90;;;;;;5051023;28;20600;-73
2022/01/04 03:09:30;;;;;;;3.85;1.65;;;9.60;99.90;;;;;;5051237;28;20694;-73
2022/01/04 03:11:58;;;;;;;2.25;1.70;;;9.60;99.90;;;;;;5050632;28;20664;-73
2022/01/04 03:14:25;;;;;;;2.38;1.73;;;9.60;99.90;;;;;;5051104;28;20228;-73
2022/01/04 03:16:52;;;;;;;2.70;2.00;;;9.60;99.90;;;;;;5051383;28;20229;-73
2022/01/04 03:19:19;;;;;;;1.95;1.58;;;9.60;99.90;;;;;;5090973;22;20224;-90
2022/01/04 03:21:45;;;;;;;1.75;1.60;;;9.70;99.90;;;;;;5058161;22;20208;-71
2022/01/04 03:24:15;;;;;;;2.75;1.80;;;9.70;99.90;;;;;;5038962;28;20224;-71
2022/01/04 03:26:42;;;;;;;1.80;1.70;;;9.80;99.90;;;;;;5030716;28;20212;-70
2022/01/04 03:29:13;;;;;;;3.58;1.80;;;9.80;99.90;;;;;;5029592;28;20212;-70
2022/01/04 03:31:40;;;;;;;2.20;1.83;;;9.80;99.90;;;;;;5029969;28;20665;-70
2022/01/04 03:34:07;;;;;;;1.73;1.45;;;9.80;99.90;;;;;;5031077;28;20225;-70
2022/01/04 03:36:35;;;;;;;2.72;1.90;;;9.80;99.90;;;;;;5030717;28;20204;-70
2022/01/04 03:39:05;;;;;;;1.88;1.73;;;9.80;99.90;;;;;;5030768;28;20205;-70
2022/01/04 03:41:33;;;;;;;2.05;1.55;;;9.80;99.90;;;;;;5030252;28;20205;-70
2022/01/04 03:44:00;;;;;;;1.50;1.40;;;9.80;99.90;;;;;;5030780;28;20221;-70
2022/01/04 03:46:28;;;;;;;1.50;1.40;;;9.80;99.90;;;;;;5030734;28;20574;-70
2022/01/04 03:48:55;;;;;;;4.45;2.05;;;9.80;99.90;;;;;;5030526;28;20201;-70
2022/01/04 03:51:22;;;;;;;3.58;2.10;;;9.80;99.90;;;;;;5030544;28;20217;-71
2022/01/04 03:53:49;;;;;;;2.30;1.67;;;9.80;99.90;;;;;;5030524;28;20226;-71
2022/01/04 03:56:16;;;;;;;2.35;1.60;;;9.80;99.90;;;;;;5030841;28;20695;-71
2022/01/04 03:58:42;;;;;;;2.35;1.60;;;9.80;99.90;;;;;;5030482;28;20218;-70
2022/01/04 04:01:09;;;;;;;1.42;1.33;;;9.80;99.90;;;;;;5029956;28;20209;-70
2022/01/04 04:03:37;;;;;;;3.90;1.50;;;9.80;99.90;;;;;;5030392;28;20229;-71
2022/01/04 04:06:04;;;;;;;2.45;1.40;;;9.80;99.90;;;;;;5030704;28;20600;-70
2022/01/04 04:08:31;;;;;;;1.50;1.30;;;9.80;99.90;;;;;;5030591;28;20631;-70
2022/01/04 04:10:58;;;;;;;1.98;1.33;;;9.80;99.90;;;;;;5030445;28;20204;-70
2022/01/04 04:13:24;;;;;;;1.83;1.38;;;9.90;99.90;;;;;;5030610;28;20728;-70
2022/01/04 04:15:51;;;;;;;1.70;1.50;;;9.90;99.90;;;;;;5030421;28;20205;-70
2022/01/04 04:18:18;;;;;;;1.40;1.20;;;9.90;99.90;;;;;;5030359;28;20233;-70
2022/01/04 04:20:47;;;;;;;2.05;1.50;;;9.90;99.90;;;;;;5030132;28;20206;-70
2022/01/04 04:23:14;;;;;;;1.52;1.30;;;9.90;99.90;;;;;;5030063;28;20241;-70
2022/01/04 04:25:41;;;;;;;2.83;1.60;;;9.90;99.90;;;;;;5030136;28;20225;-70
2022/01/04 04:28:08;;;;;;;1.90;1.33;;;9.90;99.90;;;;;;5030424;28;20193;-71
2022/01/04 04:30:35;;;;;;;1.60;1.50;;;9.90;99.90;;;;;;5030261;28;20209;-70
2022/01/04 04:33:02;;;;;;;1.45;1.33;;;10.00;99.90;;;;;;5026787;28;20209;-71
2022/01/04 04:35:29;;;;;;;2.25;1.50;;;10.00;99.90;;;;;;5020839;28;20201;-71
2022/01/04 04:37:58;;;;;;;1.25;1.15;;;10.00;99.90;;;;;;5018745;28;20225;-71
2022/01/04 04:40:25;;;;;;;3.35;1.55;;;10.00;99.90;;;;;;5021534;28;20686;-71
2022/01/04 04:42:52;;;;;;;2.25;1.27;;;10.00;99.90;;;;;;5019294;28;20210;-71
2022/01/04 04:45:19;;;;;;;1.40;1.25;;;10.00;99.90;;;;;;5018286;28;20427;-71
2022/01/04 04:47:46;;;;;;;2.40;1.70;;;10.00;99.90;;;;;;5018779;28;20197;-70
2022/01/04 04:50:12;;;;;;;1.40;1.30;;;10.00;99.90;;;;;;5020095;28;20194;-70
2022/01/04 04:52:39;;;;;;;1.70;1.42;;;10.00;99.90;;;;;;5019932;28;20194;-71
2022/01/04 04:55:09;;;;;;;1.92;1.30;;;10.00;99.90;;;;;;5018646;28;20568;-70
2022/01/04 04:57:36;;;;;;;1.40;1.30;;;10.00;99.90;;;;;;5017097;28;20310;-70
2022/01/04 05:00:03;;;;;;;3.22;1.95;;;10.00;99.90;;;;;;5009601;28;20201;-70
2022/01/04 05:02:29;;;;;;;1.45;1.35;;;9.90;99.90;;;;;;5011435;28;20571;-70
2022/01/04 05:04:56;;;;;;;2.22;1.65;;;9.90;99.90;;;;;;5010497;28;20224;-71
2022/01/04 05:07:23;;;;;;;3.92;1.40;;;9.90;99.90;;;;;;5010531;28;20195;-71
2022/01/04 05:09:49;;;;;;;2.25;1.48;;;10.00;99.90;;;;;;5010319;28;20210;-71
2022/01/04 05:12:17;;;;;;;2.95;1.05;;;9.90;99.90;;;;;;5022016;28;20688;-71
2022/01/04 05:14:46;;;;;;;3.33;1.55;;;9.90;99.90;;;;;;5030425;28;20229;-72
2022/01/04 05:17:13;;;;;;;2.20;1.38;;;9.90;99.90;;;;;;5032517;28;20310;-71
2022/01/04 05:19:41;;;;;;;1.77;1.48;;;9.80;99.90;;;;;;5033345;28;20619;-70
2022/01/04 05:22:08;;;;;;;1.63;1.52;;;9.80;99.90;;;;;;5018609;28;20210;-71
2022/01/04 05:24:35;;;;;;;3.38;2.20;;;9.80;99.90;;;;;;5030093;28;20225;-71
2022/01/04 05:27:02;;;;;;;2.05;1.77;;;9.80;99.90;;;;;;5032708;28;20568;-71
2022/01/04 05:29:30;;;;;;;5.30;1.60;;;9.90;99.90;;;;;;5031921;28;20565;-71
2022/01/04 05:31:57;;;;;;;2.15;1.95;;;9.80;99.90;;;;;;5032029;28;20202;-71
2022/01/04 05:34:25;;;;;;;3.58;2.00;;;9.80;99.90;;;;;;5031615;28;20222;-71
2022/01/04 05:36:52;;;;;;;1.70;1.60;;;9.80;99.90;;;;;;5032846;28;20578;-71
2022/01/04 05:39:19;;;;;;;1.98;1.77;;;9.80;99.90;;;;;;5033015;28;20241;-71
2022/01/04 05:41:46;;;;;;;1.33;1.23;;;9.80;99.90;;;;;;5032482;28;20684;-71
2022/01/04 05:44:13;;;;;;;1.60;1.40;;;9.70;99.90;;;;;;5032950;28;20224;-71
2022/01/04 05:46:41;;;;;;;1.85;1.48;;;9.70;99.90;;;;;;5032788;28;20198;-71
2022/01/04 05:49:07;;;;;;;3.13;1.80;;;9.70;99.90;;;;;;5032956;28;20198;-71
2022/01/04 05:51:34;;;;;;;2.80;1.50;;;9.70;99.90;;;;;;5032339;28;20668;-71
2022/01/04 05:54:01;;;;;;;1.77;1.67;;;9.60;99.90;;;;;;5032841;28;20225;-71
2022/01/04 05:56:27;;;;;;;2.20;1.52;;;9.60;99.90;;;;;;5032739;28;20217;-71
2022/01/04 05:58:54;;;;;;;1.70;1.60;;;9.60;99.90;;;;;;5032877;28;20629;-71
2022/01/04 06:01:21;;;;;;;1.48;1.38;;;9.50;99.90;;;;;;5032301;28;20210;-71
2022/01/04 06:03:51;;;;;;;2.00;1.67;;;9.50;99.90;;;;;;5032777;28;20526;-71
2022/01/04 06:06:17;;;;;;;1.60;1.27;;;9.60;99.90;;;;;;5032538;28;20696;-71
2022/01/04 06:08:45;;;;;;;1.50;1.30;;;9.60;99.90;;;;;;5032392;28;20573;-71
2022/01/04 06:11:29;;;;;;;1.67;1.30;;;9.60;99.90;;;;;;5032301;28;20236;-71
2022/01/04 06:16:40;;;;;;;2.60;1.30;;;9.60;99.90;;;;;;5032441;28;20289;-71
2022/01/04 06:19:08;;;;;;;1.98;1.45;;;9.60;99.90;;;;;;5032448;28;20600;-71
2022/01/04 06:21:35;;;;;;;2.95;1.50;;;9.60;99.90;;;;;;5031611;28;20206;-71
2022/01/04 06:24:02;;;;;;;3.45;1.70;;;9.60;99.90;;;;;;5032112;28;20312;-71
2022/01/04 06:26:29;;;;;;;2.20;1.75;;;9.60;99.90;;;;;;5032265;28;20206;-71
2022/01/04 06:28:56;;;;;;;2.13;1.67;;;9.60;99.90;;;;;;5031907;28;20222;-71
2022/01/04 06:31:23;;;;;;;2.00;1.50;;;9.60;99.90;;;;;;5031516;28;20677;-71
2022/01/04 06:33:50;;;;;;;1.75;1.40;;;9.60;99.90;;;;;;5031911;28;20275;-71
2022/01/04 06:36:18;;;;;;;2.40;1.50;;;9.50;99.90;;;;;;5032056;28;20202;-71
2022/01/04 06:38:45;;;;;;;5.47;1.65;;;9.50;99.90;;;;;;5031700;28;20224;-71
2022/01/04 06:41:12;;;;;;;1.40;1.30;;;9.50;99.90;;;;;;5031418;28;20209;-71
2022/01/04 06:43:39;;;;;;;2.10;1.45;;;9.50;99.90;;;;;;5031967;28;20225;-71
2022/01/04 06:46:05;;;;;;;1.70;1.60;;;9.50;99.90;;;;;;5031784;28;20228;-71
2022/01/04 06:48:32;;;;;;;2.65;1.60;;;9.50;99.90;;;;;;5032113;28;20202;-71
2022/01/04 06:50:59;;;;;;;1.58;1.40;;;9.50;99.90;;;;;;5031742;28;20210;-71
2022/01/04 06:53:27;;;;;;;4.20;1.73;;;9.50;99.90;;;;;;5032032;28;20227;-71
2022/01/04 06:55:54;;;;;;;1.20;1.10;;;9.50;99.90;;;;;;5031731;28;20677;-72
2022/01/04 06:58:20;;;;;;;1.45;1.20;;;9.50;99.90;;;;;;5031765;28;20222;-71
2022/01/04 07:00:47;;;;;;;2.63;1.60;;;9.50;99.90;;;;;;5031256;28;20209;-71
2022/01/04 07:03:14;;;;;;;1.77;1.40;;;9.50;99.90;;;;;;5031112;28;20248;-72
2022/01/04 07:05:41;;;;;;;1.70;1.40;;;9.50;99.90;;;;;;5031523;28;20216;-71
2022/01/04 07:08:07;;;;;;;1.52;1.42;;;9.50;99.90;;;;;;5031384;28;20204;-72
2022/01/04 07:10:36;;;;;;;1.80;1.50;;;9.50;99.90;;;;;;5031298;28;20205;-71
2022/01/04 07:13:02;;;;;;;2.45;1.35;;;9.50;99.90;;;;;;5030598;28;20229;-71
2022/01/04 07:15:29;;;;;;;1.90;1.50;;;9.50;99.90;;;;;;5031238;28;20205;-72
2022/01/04 07:17:56;;;;;;;2.38;1.30;;;9.50;99.90;;;;;;5030789;28;20221;-72
2022/01/04 07:20:22;;;;;;;2.08;1.38;;;9.50;99.90;;;;;;5031272;28;20217;-71
2022/01/04 07:22:50;;;;;;;1.42;1.33;;;9.50;99.90;;;;;;5030478;28;20215;-71
2022/01/04 07:25:16;;;;;;;1.60;1.40;;;9.50;99.90;;;;;;5031180;28;20597;-71
2022/01/04 07:27:45;;;;;;;1.65;1.10;;;9.50;99.90;;;;;;5030968;28;20541;-71
2022/01/04 07:30:12;;;;;;;1.55;1.20;;;9.50;99.90;;;;;;5031002;28;20208;-71
2022/01/04 07:32:39;;;;;;;2.60;1.45;;;9.60;99.90;;;;;;5030398;28;20202;-71
2022/01/04 07:35:07;;;;;;;2.38;1.55;;;9.60;99.90;;;;;;5030552;28;20229;-71
2022/01/04 07:37:33;;;;;;;1.30;1.20;;;9.60;99.90;;;;;;5030836;28;20205;-72
2022/01/04 07:40:00;;;;;;;1.90;1.55;;;9.70;99.90;;;;;;5030700;28;20197;-71
2022/01/04 07:42:27;;;;;;;2.25;1.45;;;9.70;99.90;;;;;;5030541;28;20206;-71
2022/01/04 07:44:55;;;;;;;2.00;1.30;;;9.80;99.90;;;;;;5030632;28;20224;-71
2022/01/04 07:47:21;;;;;;;2.08;1.30;;;9.90;99.90;;;;;;5030659;28;20205;-71
2022/01/04 07:49:48;;;;;;;1.30;1.20;;;10.00;99.90;;;;;;5030538;28;20205;-71
2022/01/04 07:52:16;;;;;;;1.42;1.15;;;10.10;99.90;;;;;;5030405;28;20205;-71
2022/01/04 07:54:43;;;;;;;1.73;1.40;;;10.30;99.90;;;;;;5030698;28;20316;-71
2022/01/04 07:57:10;;;;;;;2.35;1.20;;;10.30;99.90;;;;;;5030708;28;20202;-71
2022/01/04 07:59:37;;;;;;;1.20;1.10;;;10.40;99.90;;;;;;5030425;28;20217;-71
2022/01/04 08:02:06;;;;;;;2.05;1.27;;;10.50;99.90;;;;;;5030117;28;20220;-71
2022/01/04 08:04:33;;;;;;;1.88;1.20;;;10.60;99.90;;;;;;5030504;28;20213;-72
2022/01/04 08:07:00;;;;;;;1.30;1.20;;;10.70;99.90;;;;;;5029143;28;20735;-71
2022/01/04 08:09:28;;;;;;;2.97;1.10;;;10.70;99.90;;;;;;5030245;28;20541;-71
2022/01/04 08:11:55;;;;;;;1.77;1.20;;;10.80;99.90;;;;;;5029625;28;20635;-71
2022/01/04 08:14:22;;;;;;;2.47;1.00;;;10.80;99.90;;;;;;5029814;28;20218;-72
2022/01/04 08:16:49;;;;;;;1.85;1.33;;;10.90;99.90;;;;;;5030606;28;20355;-72
2022/01/04 08:19:17;;;;;;;1.98;1.05;;;10.90;99.90;;;;;;5030463;28;20229;-71
2022/01/04 08:21:43;;;;;;;1.80;1.10;;;10.90;99.90;;;;;;5029961;28;20206;-71
2022/01/04 08:24:10;;;;;;;1.45;1.13;;;11.00;99.90;;;;;;5030524;28;20637;-71
2022/01/04 08:26:37;;;;;;;1.98;1.20;;;11.00;99.90;;;;;;5030621;28;20297;-71
2022/01/04 08:29:05;;;;;;;1.67;1.10;;;11.00;99.90;;;;;;5030457;28;20206;-71
2022/01/04 08:31:32;;;;;;;1.20;1.10;;;11.00;99.90;;;;;;5029882;28;20305;-71
2022/01/04 08:33:59;;;;;;;3.50;1.30;;;11.00;99.90;;;;;;5030277;28;20739;-71
2022/01/04 08:36:27;;;;;;;1.10;1.00;;;11.00;99.90;;;;;;5030333;28;20677;-71
2022/01/04 08:38:54;;;;;;;2.30;1.20;;;11.10;99.90;;;;;;5030227;28;20226;-72
2022/01/04 08:41:21;;;;;;;1.30;1.00;;;11.10;99.90;;;;;;5030061;28;20206;-71
2022/01/04 08:43:48;;;;;;;1.25;1.15;;;11.10;99.90;;;;;;5020114;28;20226;-71
2022/01/04 08:46:15;;;;;;;1.40;1.25;;;11.10;99.90;;;;;;5029388;28;20194;-72
2022/01/04 08:48:42;;;;;;;2.10;1.38;;;11.10;99.90;;;;;;5032580;28;20684;-71
2022/01/04 08:51:09;;;;;;;1.23;1.00;;;11.20;99.90;;;;;;5033409;28;20202;-71
2022/01/04 08:53:37;;;;;;;2.13;1.25;;;11.20;99.90;;;;;;5033211;28;20835;-71
2022/01/04 08:56:04;;;;;;;2.28;1.23;;;11.30;99.90;;;;;;5032906;28;20206;-71
2022/01/04 08:58:32;;;;;;;3.45;1.67;;;11.30;99.90;;;;;;5033358;28;20253;-71
2022/01/04 09:00:59;;;;;;;1.70;1.15;;;11.30;99.90;;;;;;5032416;28;20572;-71
2022/01/04 09:03:26;;;;;;;1.48;1.20;;;11.30;99.90;;;;;;5032884;28;20225;-71
2022/01/04 09:05:53;;;;;;;1.95;1.17;;;11.40;99.90;;;;;;5033433;28;20206;-71
2022/01/04 09:08:20;;;;;;;1.50;1.40;;;11.40;99.90;;;;;;5033651;28;20202;-71
2022/01/04 09:10:48;;;;;;;2.90;1.35;;;11.50;99.90;;;;;;5032607;28;20224;-71
2022/01/04 09:13:18;;;;;;;2.00;1.80;;;11.50;99.90;;;;;;5032326;28;20229;-71
2022/01/04 09:18:43;;;;;;;3.92;1.40;;;11.50;99.90;;;;;;5023998;28;20205;-71
2022/01/04 09:21:02;;;;;;;3.50;1.30;;;11.60;99.90;;;;;;5067750;28;20740;-69
2022/01/04 09:23:29;;;;;;;3.30;1.35;;;11.60;99.90;;;;;;5071633;28;20224;-69
2022/01/04 09:25:57;;;;;;;1.30;1.10;;;11.50;99.90;;;;;;5071660;28;20209;-68
2022/01/04 09:28:25;;;;;;;2.58;1.60;;;11.50;99.90;;;;;;5071218;28;20205;-69
2022/01/04 09:30:52;;;;;;;3.97;1.80;;;11.50;99.90;;;;;;5070927;28;20208;-69
2022/01/04 09:33:19;;;;;;;3.40;1.38;;;11.50;99.90;;;;;;5070953;28;20224;-70
2022/01/04 09:35:46;;;;;;;4.20;1.70;;;11.50;99.90;;;;;;5071538;28;20213;-69
2022/01/04 09:38:13;;;;;;;2.05;1.23;;;11.40;99.90;;;;;;5071602;28;20203;-69
2022/01/04 09:40:40;;;;;;;2.00;1.60;;;11.40;99.90;;;;;;5054827;28;20650;-69
2022/01/04 09:43:09;;;;;;;2.70;1.25;;;11.40;99.90;;;;;;5051272;28;20201;-69
2022/01/04 09:45:36;;;;;;;2.20;1.20;;;11.30;99.90;;;;;;5050575;28;20227;-70
2022/01/04 09:48:04;;;;;;;1.67;1.23;;;11.40;99.90;;;;;;5050136;28;20205;-70
2022/01/04 09:50:32;;;;;;;1.38;1.27;;;11.40;99.90;;;;;;5050299;28;20204;-69
2022/01/04 09:53:01;;;;;;;1.50;1.40;;;11.40;99.90;;;;;;5051013;28;20208;-69
2022/01/04 09:55:27;;;;;;;3.15;1.63;;;11.30;99.90;;;;;;5050382;28;20224;-69
2022/01/04 09:57:54;;;;;;;1.67;1.50;;;11.30;99.90;;;;;;5050459;28;20197;-69
2022/01/04 10:00:23;;;;;;;2.50;1.70;;;11.30;99.90;;;;;;5051119;28;20220;-69
2022/01/04 10:02:51;;;;;;;1.80;1.25;;;11.30;99.90;;;;;;5050859;28;20208;-70
2022/01/04 10:05:19;;;;;;;1.60;1.20;;;11.30;99.90;;;;;;5049643;28;20279;-70
2022/01/04 10:07:48;;;;;;;1.73;1.23;;;11.30;99.90;;;;;;5050801;28;20205;-70
2022/01/04 10:10:18;;;;;;;1.42;1.33;;;11.20;99.90;;;;;;5051114;28;20205;-70
2022/01/04 10:12:53;;;;;;;2.40;1.73;;;11.20;99.90;;;;;;5064760;28;20200;-70
2022/01/04 10:15:39;;;;;;;2.85;1.52;;;11.10;99.90;;;;;;5070151;28;20605;-70
2022/01/04 10:18:21;;;;;;;2.30;1.77;;;11.10;99.90;;;;;;5054714;28;20687;-70
2022/01/04 10:20:51;;;;;;;2.03;1.70;;;11.10;99.90;;;;;;5050543;28;20685;-70
2022/01/04 10:23:20;;;;;;;1.98;1.70;;;11.20;99.90;;;;;;5050763;28;20256;-70
2022/01/04 10:25:48;;;;;;;2.25;1.70;;;11.30;99.90;;;;;;5050410;28;20231;-70
2022/01/04 10:28:28;;;;;;;3.30;1.52;;;11.30;99.90;;;;;;5050286;28;20208;-70
2022/01/04 10:31:00;;;;;;;2.08;1.38;;;11.40;99.90;;;;;;5050323;28;20212;-70
2022/01/04 10:33:27;;;;;;;1.70;1.60;;;11.50;99.90;;;;;;5049984;28;20217;-70
2022/01/04 10:35:56;;;;;;;2.63;1.90;;;11.60;99.90;;;;;;5050791;28;20235;-70
2022/01/04 10:38:26;;;;;;;2.50;1.67;;;11.60;99.90;;;;;;5050208;28;20228;-69
2022/01/04 10:40:58;;;;;;;2.38;1.50;;;11.70;99.90;;;;;;5049527;28;20243;-69
2022/01/04 10:43:28;;;;;;;1.83;1.65;;;11.70;99.90;;;;;;5049435;28;20250;-70
2022/01/04 10:45:57;;;;;;;2.00;1.35;;;11.70;99.90;;;;;;5050447;28;20207;-70
2022/01/04 10:48:25;;;;;;;1.73;1.40;;;11.70;99.90;;;;;;5049075;28;20568;-70
2022/01/04 10:50:54;;;;;;;2.13;1.83;;;11.70;99.90;;;;;;5047634;28;20204;-70
2022/01/04 10:53:24;;;;;;;2.42;1.63;;;11.70;99.90;;;;;;5051673;28;20228;-72
2022/01/04 10:55:54;;;;;;;2.28;2.00;;;11.70;99.90;;;;;;5054064;28;20205;-72
2022/01/04 10:58:24;;;;;;;2.22;1.83;;;11.70;99.90;;;;;;5064319;28;20671;-71
2022/01/04 11:00:53;;;;;;;2.03;1.50;;;11.70;99.90;;;;;;5072697;28;20220;-70
2022/01/04 11:03:30;;;;;;;1.92;1.35;;;11.70;99.90;;;;;;5068015;28;20935;-70
2022/01/04 11:06:04;;;;;;;2.40;1.90;;;11.70;99.90;;;;;;5069545;28;20211;-70
2022/01/04 11:08:31;;;;;;;2.53;1.95;;;11.60;99.90;;;;;;5068957;28;20197;-70
2022/01/04 11:10:59;;;;;;;2.67;1.80;;;11.70;99.90;;;;;;5067356;28;20196;-70
2022/01/04 11:13:26;;;;;;;2.75;1.73;;;11.60;99.90;;;;;;5064794;28;20240;-70
2022/01/04 11:15:53;;;;;;;2.05;1.42;;;11.60;99.90;;;;;;5069266;28;20311;-70
2022/01/04 11:18:20;;;;;;;1.75;1.45;;;11.60;99.90;;;;;;5067446;28;20210;-70
2022/01/04 11:20:49;;;;;;;1.80;1.40;;;11.70;99.90;;;;;;5068407;28;20224;-70
2022/01/04 11:23:17;;;;;;;1.73;1.50;;;11.70;99.90;;;;;;5068840;28;20227;-70
2022/01/04 11:25:45;;;;;;;2.90;1.70;;;11.70;99.90;;;;;;5068263;28;20204;-70
2022/01/04 11:28:14;;;;;;;1.50;1.40;;;11.80;99.90;;;;;;5060864;28;20201;-70
2022/01/04 11:30:54;;;;;;;2.53;1.50;;;11.70;99.90;;;;;;5048664;28;20620;-70
2022/01/04 11:33:26;;;;;;;1.83;1.52;;;11.70;99.90;;;;;;5048020;28;20225;-70
2022/01/04 11:35:56;;;;;;;2.13;1.75;;;11.70;99.90;;;;;;5049030;28;20204;-69
2022/01/04 11:38:33;;;;;;;3.88;1.50;;;11.70;99.90;;;;;;5048485;28;20254;-69
2022/01/04 11:41:00;;;;;;;3.08;2.10;;;11.70;99.90;;;;;;5048258;28;20229;-70
2022/01/04 11:43:30;;;;;;;2.65;1.70;;;11.70;99.90;;;;;;5047880;28;20247;-70
2022/01/04 11:45:57;;;;;;;2.70;1.85;;;11.70;99.90;;;;;;5049255;28;20291;-70
2022/01/04 11:48:29;;;;;;;2.65;1.90;;;11.60;99.90;;;;;;5047360;28;20201;-69
2022/01/04 11:51:00;;;;;;;4.43;1.90;;;11.50;99.90;;;;;;5048599;28;20228;-69
2022/01/04 11:53:27;;;;;;;3.15;1.75;;;11.50;99.90;;;;;;5048297;28;20216;-70
2022/01/04 11:55:57;;;;;;;2.08;1.60;;;11.50;99.90;;;;;;5048536;28;20201;-69
2022/01/04 11:58:41;;;;;;;2.20;1.83;;;11.40;99.90;;;;;;5047630;28;20204;-70
2022/01/04 12:01:08;;;;;;;2.03;1.83;;;11.30;99.90;;;;;;5048546;28;20220;-70
2022/01/04 12:03:40;;;;;;;2.00;1.70;;;11.30;99.90;;;;;;5047993;28;20610;-70
2022/01/04 12:06:10;;;;;;;4.70;2.67;;;11.30;99.90;;;;;;5048724;28;20204;-70
2022/01/04 12:08:39;;;;;;;4.00;2.10;;;11.30;99.90;;;;;;5047413;28;20212;-70
2022/01/04 12:11:20;;;;;;;5.05;2.20;;;11.20;99.90;;;;;;5068069;28;20188;-70
2022/01/04 12:13:49;;;;;;;3.35;2.17;;;11.30;99.90;;;;;;5068868;28;20270;-70
2022/01/04 12:16:16;;;;;;;3.47;1.90;;;11.30;99.90;;;;;;5068727;28;20200;-70
2022/01/04 12:19:10;;;;;;;2.45;1.80;;;11.20;99.90;;;;;;5066951;28;20208;-69
2022/01/04 12:22:03;;;;;;;3.40;1.88;;;11.20;99.90;;;;;;5070224;28;20196;-69
2022/01/04 12:24:45;;;;;;;2.03;1.83;;;11.20;99.90;;;;;;5072132;28;20216;-69
2022/01/04 12:27:14;;;;;;;3.55;2.00;;;11.10;99.90;;;;;;5072721;28;20204;-69
2022/01/04 12:29:41;;;;;;;4.90;2.03;;;11.20;99.90;;;;;;5072749;28;20196;-70
2022/01/04 12:32:19;;;;;;;3.35;1.83;;;11.10;99.90;;;;;;5071919;28;20204;-70
2022/01/04 12:34:54;;;;;;;2.15;1.83;;;11.10;99.90;;;;;;5072022;28;20220;-69
2022/01/04 12:37:22;;;;;;;2.53;1.90;;;11.20;99.90;;;;;;5072601;28;20869;-69
2022/01/04 12:39:52;;;;;;;2.95;1.70;;;11.10;99.90;;;;;;5072205;28;20742;-69
2022/01/04 12:42:20;;;;;;;2.25;1.90;;;11.10;99.90;;;;;;5071923;28;20205;-69
2022/01/04 12:44:51;;;;;;;1.80;1.58;;;11.10;99.90;;;;;;5072510;28;20224;-69
2022/01/04 12:47:20;;;;;;;3.40;2.25;;;11.10;99.90;;;;;;5072325;28;20582;-69
2022/01/04 12:49:47;;;;;;;3.25;2.15;;;11.00;99.90;;;;;;5071418;28;20291;-70
2022/01/04 12:52:17;;;;;;;2.13;1.80;;;11.00;99.90;;;;;;5071840;28;20205;-69
2022/01/04 12:54:45;;;;;;;2.97;1.92;;;11.10;99.90;;;;;;5054176;28;20779;-69
2022/01/04 12:57:14;;;;;;;3.08;1.73;;;11.00;99.90;;;;;;5058601;28;20224;-71
2022/01/04 12:59:42;;;;;;;2.83;1.98;;;11.00;99.90;;;;;;5055038;28;20228;-71
2022/01/04 13:02:19;;;;;;;2.80;1.73;;;11.10;99.90;;;;;;5070417;28;20236;-71
2022/01/04 13:04:48;;;;;;;2.08;1.88;;;11.00;99.90;;;;;;5072795;28;20227;-71
2022/01/04 13:07:21;;;;;;;2.65;2.05;;;11.00;99.90;;;;;;5073371;28;20200;-71